sensor_id;sensor_type;location;lat;lon;timestamp;pressure;altitude;pressure_sealevel;temperature;humidity
62510;BME280;48558;48.242;11.654;2023-03-14T00:01:48;94818.94;;;9.06;100.00
62510;BME280;48558;48.242;11.654;2023-03-14T00:06:05;94806.28;;;8.94;100.00
62510;BME280;48558;48.242;11.654;2023-03-14T00:10:18;94776.16;;;8.85;100.00
62510;BME280;48558;48.242;11.654;2023-03-14T00:14:31;94762.72;;;8.92;100.00
62510;BME280;48558;48.242;11.654;2023-03-14T00:18:44;94740.25;;;9.05;100.00
62510;BME280;48558;48.242;11.654;2023-03-14T00:22:56;94748.38;;;9.56;100.00
62510;BME280;48558;48.242;11.654;2023-03-14T00:27:09;94792.25;;;9.60;100.00
62510;BME280;48558;48.242;11.654;2023-03-14T00:31:30;94786.63;;;9.43;100.00
62510;BME280;48558;48.242;11.654;2023-03-14T00:35:43;94773.56;;;9.38;100.00
62510;BME280;48558;48.242;11.654;2023-03-14T00:39:55;94745.06;;;9.52;100.00
62510;BME280;48558;48.242;11.654;2023-03-14T00:44:08;94745.31;;;9.49;100.00
62510;BME280;48558;48.242;11.654;2023-03-14T00:48:21;94753.38;;;9.58;100.00
62510;BME280;48558;48.242;11.654;2023-03-14T00:52:33;94779.22;;;9.60;100.00
62510;BME280;48558;48.242;11.654;2023-03-14T00:56:46;94794.22;;;9.59;100.00
62510;BME280;48558;48.242;11.654;2023-03-14T01:01:05;94783.25;;;9.70;100.00
62510;BME280;48558;48.242;11.654;2023-03-14T01:05:21;94784.44;;;10.06;100.00
62510;BME280;48558;48.242;11.654;2023-03-14T01:09:34;94794.53;;;10.15;100.00
62510;BME280;48558;48.242;11.654;2023-03-14T01:13:47;94794.28;;;10.13;100.00
62510;BME280;48558;48.242;11.654;2023-03-14T01:18:00;94808.78;;;10.07;100.00
62510;BME280;48558;48.242;11.654;2023-03-14T01:22:13;94801.31;;;10.14;100.00
62510;BME280;48558;48.242;11.654;2023-03-14T01:26:27;94803.34;;;10.13;100.00
62510;BME280;48558;48.242;11.654;2023-03-14T01:30:52;94826.69;;;10.18;100.00
62510;BME280;48558;48.242;11.654;2023-03-14T01:35:04;94825.59;;;10.09;100.00
62510;BME280;48558;48.242;11.654;2023-03-14T01:39:27;94841.88;;;10.02;100.00
62510;BME280;48558;48.242;11.654;2023-03-14T01:43:40;94836.47;;;9.76;100.00
62510;BME280;48558;48.242;11.654;2023-03-14T01:47:52;94847.59;;;9.93;100.00
62510;BME280;48558;48.242;11.654;2023-03-14T01:52:25;94853.84;;;9.88;100.00
62510;BME280;48558;48.242;11.654;2023-03-14T01:56:55;94835.41;;;9.68;100.00
62510;BME280;48558;48.242;11.654;2023-03-14T02:01:29;94847.19;;;9.69;100.00
62510;BME280;48558;48.242;11.654;2023-03-14T02:05:43;94837.50;;;9.42;100.00
62510;BME280;48558;48.242;11.654;2023-03-14T02:10:07;94848.97;;;9.35;100.00
62510;BME280;48558;48.242;11.654;2023-03-14T02:14:30;94836.72;;;9.36;100.00
62510;BME280;48558;48.242;11.654;2023-03-14T02:18:45;94829.16;;;9.31;100.00
62510;BME280;48558;48.242;11.654;2023-03-14T02:22:57;94818.78;;;9.20;100.00
62510;BME280;48558;48.242;11.654;2023-03-14T02:27:15;94799.00;;;9.22;100.00
62510;BME280;48558;48.242;11.654;2023-03-14T02:31:29;94793.25;;;9.20;100.00
62510;BME280;48558;48.242;11.654;2023-03-14T02:35:45;94753.81;;;9.08;100.00
62510;BME280;48558;48.242;11.654;2023-03-14T02:40:09;94730.44;;;8.98;100.00
62510;BME280;48558;48.242;11.654;2023-03-14T02:44:22;94687.50;;;8.81;100.00
62510;BME280;48558;48.242;11.654;2023-03-14T02:48:46;94677.03;;;8.85;100.00
62510;BME280;48558;48.242;11.654;2023-03-14T02:53:04;94677.63;;;8.63;100.00
62510;BME280;48558;48.242;11.654;2023-03-14T02:57:16;94675.63;;;8.63;100.00
62510;BME280;48558;48.242;11.654;2023-03-14T03:01:29;94680.91;;;8.67;100.00
62510;BME280;48558;48.242;11.654;2023-03-14T03:05:41;94675.63;;;8.63;100.00
62510;BME280;48558;48.242;11.654;2023-03-14T03:09:56;94690.44;;;8.66;100.00
62510;BME280;48558;48.242;11.654;2023-03-14T03:14:09;94698.97;;;8.74;100.00
62510;BME280;48558;48.242;11.654;2023-03-14T03:18:21;94695.75;;;8.75;100.00
62510;BME280;48558;48.242;11.654;2023-03-14T03:22:44;94689.63;;;8.97;100.00
62510;BME280;48558;48.242;11.654;2023-03-14T03:26:57;94669.38;;;9.05;100.00
62510;BME280;48558;48.242;11.654;2023-03-14T03:31:19;94672.72;;;9.15;100.00
62510;BME280;48558;48.242;11.654;2023-03-14T03:35:48;94667.69;;;9.13;100.00
62510;BME280;48558;48.242;11.654;2023-03-14T03:40:02;94662.84;;;8.97;100.00
62510;BME280;48558;48.242;11.654;2023-03-14T03:44:18;94665.59;;;8.97;100.00
62510;BME280;48558;48.242;11.654;2023-03-14T03:48:36;94647.59;;;9.02;100.00
62510;BME280;48558;48.242;11.654;2023-03-14T03:52:49;94642.91;;;9.13;100.00
62510;BME280;48558;48.242;11.654;2023-03-14T03:57:01;94647.28;;;8.94;100.00
62510;BME280;48558;48.242;11.654;2023-03-14T04:01:15;94647.81;;;8.98;100.00
62510;BME280;48558;48.242;11.654;2023-03-14T04:05:28;94643.50;;;8.92;100.00
62510;BME280;48558;48.242;11.654;2023-03-14T04:09:40;94639.97;;;8.86;100.00
62510;BME280;48558;48.242;11.654;2023-03-14T04:13:53;94625.72;;;8.87;100.00
62510;BME280;48558;48.242;11.654;2023-03-14T04:18:05;94636.00;;;8.92;100.00
62510;BME280;48558;48.242;11.654;2023-03-14T04:22:18;94620.25;;;8.93;100.00
62510;BME280;48558;48.242;11.654;2023-03-14T04:26:30;94635.78;;;8.96;100.00
62510;BME280;48558;48.242;11.654;2023-03-14T04:30:43;94616.94;;;8.83;100.00
62510;BME280;48558;48.242;11.654;2023-03-14T04:34:55;94613.34;;;8.66;100.00
62510;BME280;48558;48.242;11.654;2023-03-14T04:39:08;94612.84;;;8.68;100.00
62510;BME280;48558;48.242;11.654;2023-03-14T04:43:24;94602.38;;;8.77;100.00
62510;BME280;48558;48.242;11.654;2023-03-14T04:47:37;94600.38;;;8.78;100.00
62510;BME280;48558;48.242;11.654;2023-03-14T04:51:51;94599.84;;;8.74;100.00
62510;BME280;48558;48.242;11.654;2023-03-14T04:56:04;94599.78;;;8.62;100.00
62510;BME280;48558;48.242;11.654;2023-03-14T05:00:17;94590.28;;;8.63;100.00
62510;BME280;48558;48.242;11.654;2023-03-14T05:04:30;94576.25;;;8.61;100.00
62510;BME280;48558;48.242;11.654;2023-03-14T05:08:44;94577.69;;;8.51;100.00
62510;BME280;48558;48.242;11.654;2023-03-14T05:12:57;94562.97;;;8.54;100.00
62510;BME280;48558;48.242;11.654;2023-03-14T05:17:10;94581.97;;;8.52;100.00
62510;BME280;48558;48.242;11.654;2023-03-14T05:21:23;94568.47;;;8.54;100.00
62510;BME280;48558;48.242;11.654;2023-03-14T05:25:35;94576.16;;;8.50;100.00
62510;BME280;48558;48.242;11.654;2023-03-14T05:29:48;94568.72;;;8.56;100.00
62510;BME280;48558;48.242;11.654;2023-03-14T05:34:00;94581.97;;;8.52;100.00
62510;BME280;48558;48.242;11.654;2023-03-14T05:38:13;94580.69;;;8.48;100.00
62510;BME280;48558;48.242;11.654;2023-03-14T05:42:25;94570.16;;;8.46;100.00
62510;BME280;48558;48.242;11.654;2023-03-14T05:46:38;94583.66;;;8.44;100.00
62510;BME280;48558;48.242;11.654;2023-03-14T05:50:55;94577.44;;;8.49;100.00
62510;BME280;48558;48.242;11.654;2023-03-14T05:55:09;94571.16;;;8.49;100.00
62510;BME280;48558;48.242;11.654;2023-03-14T05:59:22;94561.22;;;8.57;100.00
62510;BME280;48558;48.242;11.654;2023-03-14T06:03:45;94556.94;;;8.56;100.00
62510;BME280;48558;48.242;11.654;2023-03-14T06:07:58;94558.47;;;8.57;100.00
62510;BME280;48558;48.242;11.654;2023-03-14T06:12:10;94553.75;;;8.68;100.00
62510;BME280;48558;48.242;11.654;2023-03-14T06:16:22;94558.09;;;8.81;100.00
62510;BME280;48558;48.242;11.654;2023-03-14T06:20:36;94541.81;;;8.83;100.00
62510;BME280;48558;48.242;11.654;2023-03-14T06:24:51;94537.41;;;9.02;100.00
62510;BME280;48558;48.242;11.654;2023-03-14T06:29:03;94531.63;;;9.00;100.00
62510;BME280;48558;48.242;11.654;2023-03-14T06:33:17;94533.41;;;9.08;100.00
62510;BME280;48558;48.242;11.654;2023-03-14T06:37:35;94521.13;;;9.09;100.00
62510;BME280;48558;48.242;11.654;2023-03-14T06:41:48;94510.41;;;9.17;100.00
62510;BME280;48558;48.242;11.654;2023-03-14T06:46:00;94502.63;;;9.21;100.00
62510;BME280;48558;48.242;11.654;2023-03-14T06:50:13;94493.44;;;9.46;100.00
62510;BME280;48558;48.242;11.654;2023-03-14T06:54:25;94495.44;;;9.51;100.00
62510;BME280;48558;48.242;11.654;2023-03-14T06:58:38;94510.72;;;9.47;100.00
62510;BME280;48558;48.242;11.654;2023-03-14T07:02:50;94529.28;;;9.57;100.00
62510;BME280;48558;48.242;11.654;2023-03-14T07:07:03;94532.81;;;9.69;100.00
62510;BME280;48558;48.242;11.654;2023-03-14T07:11:16;94547.59;;;9.71;100.00
62510;BME280;48558;48.242;11.654;2023-03-14T07:15:29;94556.41;;;9.97;100.00
62510;BME280;48558;48.242;11.654;2023-03-14T07:19:41;94556.94;;;10.01;100.00
62510;BME280;48558;48.242;11.654;2023-03-14T07:23:54;94553.16;;;9.93;100.00
62510;BME280;48558;48.242;11.654;2023-03-14T07:28:10;94550.63;;;9.73;100.00
62510;BME280;48558;48.242;11.654;2023-03-14T07:32:22;94532.59;;;9.83;100.00
62510;BME280;48558;48.242;11.654;2023-03-14T07:36:35;94537.84;;;9.81;100.00
62510;BME280;48558;48.242;11.654;2023-03-14T07:40:48;94551.91;;;9.83;100.00
62510;BME280;48558;48.242;11.654;2023-03-14T07:45:00;94543.63;;;9.83;100.00
62510;BME280;48558;48.242;11.654;2023-03-14T07:49:13;94537.34;;;9.94;100.00
62510;BME280;48558;48.242;11.654;2023-03-14T07:53:25;94535.59;;;9.96;100.00
62510;BME280;48558;48.242;11.654;2023-03-14T07:57:38;94525.09;;;10.12;100.00
62510;BME280;48558;48.242;11.654;2023-03-14T08:01:50;94539.13;;;10.08;100.00
62510;BME280;48558;48.242;11.654;2023-03-14T08:06:13;94546.16;;;10.31;100.00
62510;BME280;48558;48.242;11.654;2023-03-14T08:10:25;94537.59;;;10.40;100.00
62510;BME280;48558;48.242;11.654;2023-03-14T08:14:38;94552.91;;;10.47;100.00
62510;BME280;48558;48.242;11.654;2023-03-14T08:19:00;94548.38;;;10.60;100.00
62510;BME280;48558;48.242;11.654;2023-03-14T08:23:13;94554.63;;;10.61;100.00
62510;BME280;48558;48.242;11.654;2023-03-14T08:27:25;94542.31;;;10.78;100.00
62510;BME280;48558;48.242;11.654;2023-03-14T08:31:38;94542.84;;;10.55;100.00
62510;BME280;48558;48.242;11.654;2023-03-14T08:35:58;94534.78;;;10.73;100.00
62510;BME280;48558;48.242;11.654;2023-03-14T08:40:12;94559.31;;;11.05;100.00
62510;BME280;48558;48.242;11.654;2023-03-14T08:44:25;94563.63;;;10.89;100.00
62510;BME280;48558;48.242;11.654;2023-03-14T08:48:38;94559.88;;;10.75;100.00
62510;BME280;48558;48.242;11.654;2023-03-14T08:52:50;94564.63;;;10.86;100.00
62510;BME280;48558;48.242;11.654;2023-03-14T08:57:03;94577.59;;;11.19;100.00
62510;BME280;48558;48.242;11.654;2023-03-14T09:01:16;94577.84;;;11.15;100.00
62510;BME280;48558;48.242;11.654;2023-03-14T09:05:33;94568.56;;;11.13;100.00
62510;BME280;48558;48.242;11.654;2023-03-14T09:09:46;94586.38;;;11.28;100.00
62510;BME280;48558;48.242;11.654;2023-03-14T09:13:59;94577.03;;;11.31;100.00
62510;BME280;48558;48.242;11.654;2023-03-14T09:18:11;94580.75;;;11.45;100.00
62510;BME280;48558;48.242;11.654;2023-03-14T09:22:24;94576.56;;;11.22;100.00
62510;BME280;48558;48.242;11.654;2023-03-14T09:26:36;94573.44;;;11.53;100.00
62510;BME280;48558;48.242;11.654;2023-03-14T09:30:49;94563.91;;;11.48;100.00
62510;BME280;48558;48.242;11.654;2023-03-14T09:35:02;94575.13;;;11.73;100.00
62510;BME280;48558;48.242;11.654;2023-03-14T09:39:15;94565.75;;;11.81;100.00
62510;BME280;48558;48.242;11.654;2023-03-14T09:43:30;94557.78;;;11.67;100.00
62510;BME280;48558;48.242;11.654;2023-03-14T09:47:44;94546.00;;;11.55;100.00
62510;BME280;48558;48.242;11.654;2023-03-14T09:52:15;94559.28;;;11.68;100.00
62510;BME280;48558;48.242;11.654;2023-03-14T09:56:32;94548.03;;;11.54;100.00
62510;BME280;48558;48.242;11.654;2023-03-14T10:00:46;94538.97;;;11.54;100.00
62510;BME280;48558;48.242;11.654;2023-03-14T10:04:59;94548.47;;;11.70;100.00
62510;BME280;48558;48.242;11.654;2023-03-14T10:09:20;94539.63;;;11.77;100.00
62510;BME280;48558;48.242;11.654;2023-03-14T10:14:01;94537.38;;;11.70;100.00
62510;BME280;48558;48.242;11.654;2023-03-14T10:18:16;94537.44;;;11.99;100.00
62510;BME280;48558;48.242;11.654;2023-03-14T10:22:32;94530.72;;;12.24;100.00
62510;BME280;48558;48.242;11.654;2023-03-14T10:26:55;94528.28;;;12.69;100.00
62510;BME280;48558;48.242;11.654;2023-03-14T10:31:10;94523.38;;;13.05;94.08
62510;BME280;48558;48.242;11.654;2023-03-14T10:35:23;94529.41;;;13.28;98.79
62510;BME280;48558;48.242;11.654;2023-03-14T10:39:41;94526.50;;;14.26;87.96
62510;BME280;48558;48.242;11.654;2023-03-14T10:43:59;94529.53;;;13.17;89.84
62510;BME280;48558;48.242;11.654;2023-03-14T10:52:29;94528.38;;;12.34;98.21
62510;BME280;48558;48.242;11.654;2023-03-14T10:57:04;94524.75;;;12.69;100.00
62510;BME280;48558;48.242;11.654;2023-03-14T11:06:14;94543.09;;;12.18;100.00
62510;BME280;48558;48.242;11.654;2023-03-14T11:10:38;94526.06;;;12.62;99.97
62510;BME280;48558;48.242;11.654;2023-03-14T11:15:22;94530.91;;;12.80;99.50
62510;BME280;48558;48.242;11.654;2023-03-14T11:19:49;94526.25;;;13.18;97.32
62510;BME280;48558;48.242;11.654;2023-03-14T11:24:29;94540.97;;;13.08;86.70
62510;BME280;48558;48.242;11.654;2023-03-14T11:28:57;94518.78;;;13.32;82.21
62510;BME280;48558;48.242;11.654;2023-03-14T11:33:17;94527.47;;;13.79;89.37
62510;BME280;48558;48.242;11.654;2023-03-14T11:37:35;94526.72;;;13.78;83.65
62510;BME280;48558;48.242;11.654;2023-03-14T11:41:51;94508.19;;;13.49;82.55
62510;BME280;48558;48.242;11.654;2023-03-14T11:50:33;94490.06;;;13.29;82.69
62510;BME280;48558;48.242;11.654;2023-03-14T11:54:52;94493.16;;;13.02;90.91
62510;BME280;48558;48.242;11.654;2023-03-14T11:59:19;94481.84;;;13.00;88.47
62510;BME280;48558;48.242;11.654;2023-03-14T12:03:41;94486.97;;;12.90;88.46
62510;BME280;48558;48.242;11.654;2023-03-14T12:12:31;94487.75;;;12.66;88.45
62510;BME280;48558;48.242;11.654;2023-03-14T12:16:46;94488.22;;;12.70;89.15
62510;BME280;48558;48.242;11.654;2023-03-14T12:21:02;94490.81;;;12.63;89.32
62510;BME280;48558;48.242;11.654;2023-03-14T12:25:24;94487.28;;;12.62;92.50
62510;BME280;48558;48.242;11.654;2023-03-14T12:29:58;94482.28;;;13.04;88.91
62510;BME280;48558;48.242;11.654;2023-03-14T12:38:37;94474.91;;;12.87;88.87
62510;BME280;48558;48.242;11.654;2023-03-14T12:43:02;94456.56;;;13.03;83.70
62510;BME280;48558;48.242;11.654;2023-03-14T12:51:42;94463.75;;;13.54;81.81
62510;BME280;48558;48.242;11.654;2023-03-14T13:00:35;94492.97;;;13.55;86.54
62510;BME280;48558;48.242;11.654;2023-03-14T13:05:11;94486.00;;;13.30;88.21
62510;BME280;48558;48.242;11.654;2023-03-14T13:09:51;94494.91;;;12.80;86.75
62510;BME280;48558;48.242;11.654;2023-03-14T13:14:09;94513.38;;;12.48;92.69
62510;BME280;48558;48.242;11.654;2023-03-14T13:18:38;94497.16;;;12.34;94.49
62510;BME280;48558;48.242;11.654;2023-03-14T13:22:52;94507.69;;;12.35;95.26
62510;BME280;48558;48.242;11.654;2023-03-14T13:27:17;94502.81;;;12.71;91.19
62510;BME280;48558;48.242;11.654;2023-03-14T13:31:32;94517.03;;;12.62;96.39
62510;BME280;48558;48.242;11.654;2023-03-14T13:36:05;94541.56;;;12.22;100.00
62510;BME280;48558;48.242;11.654;2023-03-14T13:40:26;94561.31;;;11.62;100.00
62510;BME280;48558;48.242;11.654;2023-03-14T13:44:44;94577.84;;;11.21;100.00
62510;BME280;48558;48.242;11.654;2023-03-14T13:49:04;94581.69;;;10.96;100.00
62510;BME280;48558;48.242;11.654;2023-03-14T13:53:18;94584.78;;;10.59;100.00
62510;BME280;48558;48.242;11.654;2023-03-14T13:57:50;94590.06;;;10.35;100.00
62510;BME280;48558;48.242;11.654;2023-03-14T14:02:13;94609.91;;;10.22;100.00
62510;BME280;48558;48.242;11.654;2023-03-14T14:06:34;94615.66;;;10.13;100.00
62510;BME280;48558;48.242;11.654;2023-03-14T14:10:48;94635.63;;;9.80;100.00
62510;BME280;48558;48.242;11.654;2023-03-14T14:15:06;94650.88;;;9.65;100.00
62510;BME280;48558;48.242;11.654;2023-03-14T14:19:23;94665.41;;;9.60;100.00
62510;BME280;48558;48.242;11.654;2023-03-14T14:23:38;94671.28;;;9.30;100.00
62510;BME280;48558;48.242;11.654;2023-03-14T14:27:51;94681.69;;;9.10;100.00
62510;BME280;48558;48.242;11.654;2023-03-14T14:36:38;94697.31;;;8.87;100.00
62510;BME280;48558;48.242;11.654;2023-03-14T14:40:55;94721.94;;;8.65;100.00
62510;BME280;48558;48.242;11.654;2023-03-14T14:45:38;94744.50;;;8.18;100.00
62510;BME280;48558;48.242;11.654;2023-03-14T14:49:53;94750.78;;;7.98;100.00
62510;BME280;48558;48.242;11.654;2023-03-14T14:54:13;94756.56;;;7.80;100.00
62510;BME280;48558;48.242;11.654;2023-03-14T14:58:36;94784.94;;;7.71;100.00
62510;BME280;48558;48.242;11.654;2023-03-14T15:02:54;94787.91;;;7.68;100.00
62510;BME280;48558;48.242;11.654;2023-03-14T15:07:11;94790.66;;;7.88;100.00
62510;BME280;48558;48.242;11.654;2023-03-14T15:11:25;94798.34;;;7.84;100.00
62510;BME280;48558;48.242;11.654;2023-03-14T15:15:45;94802.41;;;7.88;100.00
62510;BME280;48558;48.242;11.654;2023-03-14T15:19:58;94836.72;;;7.93;100.00
62510;BME280;48558;48.242;11.654;2023-03-14T15:24:12;94853.66;;;7.71;100.00
62510;BME280;48558;48.242;11.654;2023-03-14T15:28:28;94871.16;;;7.54;100.00
62510;BME280;48558;48.242;11.654;2023-03-14T15:32:42;94872.16;;;7.21;100.00
62510;BME280;48558;48.242;11.654;2023-03-14T15:37:02;94875.38;;;7.20;100.00
62510;BME280;48558;48.242;11.654;2023-03-14T15:41:19;94870.53;;;7.30;100.00
62510;BME280;48558;48.242;11.654;2023-03-14T15:45:32;94890.72;;;7.41;100.00
62510;BME280;48558;48.242;11.654;2023-03-14T15:49:45;94914.19;;;7.57;100.00
62510;BME280;48558;48.242;11.654;2023-03-14T15:53:58;94894.28;;;7.62;100.00
62510;BME280;48558;48.242;11.654;2023-03-14T15:58:16;94932.66;;;7.71;100.00
62510;BME280;48558;48.242;11.654;2023-03-14T16:02:32;94907.28;;;7.47;100.00
62510;BME280;48558;48.242;11.654;2023-03-14T16:06:45;94937.69;;;7.58;100.00
62510;BME280;48558;48.242;11.654;2023-03-14T16:10:58;94961.75;;;7.63;100.00
62510;BME280;48558;48.242;11.654;2023-03-14T16:15:11;94961.66;;;7.72;100.00
62510;BME280;48558;48.242;11.654;2023-03-14T16:19:24;94971.78;;;7.80;100.00
62510;BME280;48558;48.242;11.654;2023-03-14T16:23:38;94965.22;;;7.78;100.00
62510;BME280;48558;48.242;11.654;2023-03-14T16:27:51;94988.28;;;7.80;100.00
62510;BME280;48558;48.242;11.654;2023-03-14T16:32:21;95008.94;;;7.90;100.00
62510;BME280;48558;48.242;11.654;2023-03-14T16:36:34;94964.19;;;7.90;100.00
62510;BME280;48558;48.242;11.654;2023-03-14T16:40:58;95008.50;;;7.77;100.00
62510;BME280;48558;48.242;11.654;2023-03-14T16:45:12;95009.81;;;7.82;100.00
62510;BME280;48558;48.242;11.654;2023-03-14T16:49:24;95032.28;;;7.66;100.00
62510;BME280;48558;48.242;11.654;2023-03-14T16:53:37;95047.53;;;7.67;100.00
62510;BME280;48558;48.242;11.654;2023-03-14T16:57:50;95060.91;;;7.59;100.00
62510;BME280;48558;48.242;11.654;2023-03-14T17:02:03;95085.53;;;7.54;100.00
62510;BME280;48558;48.242;11.654;2023-03-14T17:06:24;95118.31;;;7.43;100.00
62510;BME280;48558;48.242;11.654;2023-03-14T17:10:38;95116.22;;;7.38;100.00
62510;BME280;48558;48.242;11.654;2023-03-14T17:15:00;95133.53;;;7.29;100.00
62510;BME280;48558;48.242;11.654;2023-03-14T17:19:13;95146.34;;;7.08;100.00
62510;BME280;48558;48.242;11.654;2023-03-14T17:23:27;95168.03;;;7.06;100.00
62510;BME280;48558;48.242;11.654;2023-03-14T17:27:41;95184.25;;;6.95;100.00
62510;BME280;48558;48.242;11.654;2023-03-14T17:31:56;95192.97;;;6.94;100.00
62510;BME280;48558;48.242;11.654;2023-03-14T17:36:09;95205.97;;;6.84;100.00
62510;BME280;48558;48.242;11.654;2023-03-14T17:40:31;95209.69;;;6.72;100.00
62510;BME280;48558;48.242;11.654;2023-03-14T17:44:44;95217.47;;;6.74;100.00
62510;BME280;48558;48.242;11.654;2023-03-14T17:48:57;95216.00;;;6.55;100.00
62510;BME280;48558;48.242;11.654;2023-03-14T17:53:09;95225.13;;;6.61;100.00
62510;BME280;48558;48.242;11.654;2023-03-14T17:57:22;95246.22;;;6.45;100.00
62510;BME280;48558;48.242;11.654;2023-03-14T18:01:34;95243.19;;;6.34;100.00
62510;BME280;48558;48.242;11.654;2023-03-14T18:05:47;95253.88;;;6.32;100.00
62510;BME280;48558;48.242;11.654;2023-03-14T18:10:00;95250.69;;;6.16;100.00
62510;BME280;48558;48.242;11.654;2023-03-14T18:14:13;95256.47;;;6.09;100.00
62510;BME280;48558;48.242;11.654;2023-03-14T18:18:36;95260.47;;;6.08;100.00
62510;BME280;48558;48.242;11.654;2023-03-14T18:22:49;95269.28;;;6.12;100.00
62510;BME280;48558;48.242;11.654;2023-03-14T18:27:03;95277.00;;;6.40;92.79
62510;BME280;48558;48.242;11.654;2023-03-14T18:31:16;95286.31;;;6.34;96.20
62510;BME280;48558;48.242;11.654;2023-03-14T18:35:41;95274.47;;;6.10;95.98
62510;BME280;48558;48.242;11.654;2023-03-14T18:40:02;95282.41;;;6.08;99.25
62510;BME280;48558;48.242;11.654;2023-03-14T18:44:18;95292.13;;;5.91;100.00
62510;BME280;48558;48.242;11.654;2023-03-14T18:48:30;95281.78;;;5.86;100.00
62510;BME280;48558;48.242;11.654;2023-03-14T18:52:43;95298.84;;;5.90;100.00
62510;BME280;48558;48.242;11.654;2023-03-14T18:56:55;95309.81;;;5.90;100.00
62510;BME280;48558;48.242;11.654;2023-03-14T19:01:11;95292.75;;;5.86;100.00
62510;BME280;48558;48.242;11.654;2023-03-14T19:05:24;95309.53;;;5.97;100.00
62510;BME280;48558;48.242;11.654;2023-03-14T19:09:36;95317.09;;;5.93;100.00
62510;BME280;48558;48.242;11.654;2023-03-14T19:13:52;95311.91;;;5.76;100.00
62510;BME280;48558;48.242;11.654;2023-03-14T19:18:06;95319.41;;;5.85;100.00
62510;BME280;48558;48.242;11.654;2023-03-14T19:22:31;95327.72;;;5.72;100.00
62510;BME280;48558;48.242;11.654;2023-03-14T19:26:45;95345.81;;;5.61;100.00
62510;BME280;48558;48.242;11.654;2023-03-14T19:31:00;95341.72;;;5.65;100.00
62510;BME280;48558;48.242;11.654;2023-03-14T19:35:15;95334.13;;;5.60;100.00
62510;BME280;48558;48.242;11.654;2023-03-14T19:39:27;95348.44;;;5.64;100.00
62510;BME280;48558;48.242;11.654;2023-03-14T19:43:40;95357.25;;;5.68;100.00
62510;BME280;48558;48.242;11.654;2023-03-14T19:47:52;95361.41;;;5.82;100.00
62510;BME280;48558;48.242;11.654;2023-03-14T19:52:04;95346.81;;;5.85;100.00
62510;BME280;48558;48.242;11.654;2023-03-14T19:56:17;95359.00;;;5.93;100.00
62510;BME280;48558;48.242;11.654;2023-03-14T20:00:31;95361.31;;;5.95;100.00
62510;BME280;48558;48.242;11.654;2023-03-14T20:04:44;95370.44;;;5.92;100.00
62510;BME280;48558;48.242;11.654;2023-03-14T20:08:58;95370.28;;;6.04;100.00
62510;BME280;48558;48.242;11.654;2023-03-14T20:13:11;95378.53;;;6.13;100.00
62510;BME280;48558;48.242;11.654;2023-03-14T20:17:32;95381.13;;;6.17;100.00
62510;BME280;48558;48.242;11.654;2023-03-14T20:21:49;95388.91;;;6.18;100.00
62510;BME280;48558;48.242;11.654;2023-03-14T20:26:02;95387.06;;;6.15;100.00
62510;BME280;48558;48.242;11.654;2023-03-14T20:30:16;95387.22;;;6.12;100.00
62510;BME280;48558;48.242;11.654;2023-03-14T20:34:32;95413.44;;;6.13;100.00
62510;BME280;48558;48.242;11.654;2023-03-14T20:38:46;95409.63;;;6.19;100.00
62510;BME280;48558;48.242;11.654;2023-03-14T20:42:59;95417.84;;;6.10;100.00
62510;BME280;48558;48.242;11.654;2023-03-14T20:47:11;95425.44;;;6.06;100.00
62510;BME280;48558;48.242;11.654;2023-03-14T20:51:24;95426.69;;;6.14;100.00
62510;BME280;48558;48.242;11.654;2023-03-14T20:55:36;95402.78;;;6.24;100.00
62510;BME280;48558;48.242;11.654;2023-03-14T20:59:49;95397.88;;;6.01;100.00
62510;BME280;48558;48.242;11.654;2023-03-14T21:04:02;95421.00;;;6.00;100.00
62510;BME280;48558;48.242;11.654;2023-03-14T21:08:18;95434.94;;;5.83;100.00
62510;BME280;48558;48.242;11.654;2023-03-14T21:12:32;95425.78;;;5.68;100.00
62510;BME280;48558;48.242;11.654;2023-03-14T21:16:45;95429.22;;;5.51;100.00
62510;BME280;48558;48.242;11.654;2023-03-14T21:20:58;95413.22;;;5.49;100.00
62510;BME280;48558;48.242;11.654;2023-03-14T21:25:19;95436.34;;;5.48;100.00
62510;BME280;48558;48.242;11.654;2023-03-14T21:29:40;95452.34;;;5.50;100.00
62510;BME280;48558;48.242;11.654;2023-03-14T21:33:53;95445.09;;;5.34;100.00
62510;BME280;48558;48.242;11.654;2023-03-14T21:38:05;95472.66;;;5.31;100.00
62510;BME280;48558;48.242;11.654;2023-03-14T21:42:18;95461.38;;;5.07;100.00
62510;BME280;48558;48.242;11.654;2023-03-14T21:46:30;95478.66;;;4.95;100.00
62510;BME280;48558;48.242;11.654;2023-03-14T21:50:45;95492.97;;;4.99;100.00
62510;BME280;48558;48.242;11.654;2023-03-14T21:54:58;95468.63;;;4.58;100.00
62510;BME280;48558;48.242;11.654;2023-03-14T21:59:12;95485.13;;;4.67;100.00
62510;BME280;48558;48.242;11.654;2023-03-14T22:03:25;95493.50;;;4.51;100.00
62510;BME280;48558;48.242;11.654;2023-03-14T22:07:39;95482.22;;;4.49;100.00
62510;BME280;48558;48.242;11.654;2023-03-14T22:11:52;95445.03;;;4.17;100.00
62510;BME280;48558;48.242;11.654;2023-03-14T22:16:06;95490.91;;;4.34;100.00
62510;BME280;48558;48.242;11.654;2023-03-14T22:20:19;95483.94;;;4.33;100.00
62510;BME280;48558;48.242;11.654;2023-03-14T22:24:32;95487.22;;;4.28;100.00
62510;BME280;48558;48.242;11.654;2023-03-14T22:28:44;95504.25;;;4.32;100.00
62510;BME280;48558;48.242;11.654;2023-03-14T22:32:57;95498.25;;;4.38;100.00
62510;BME280;48558;48.242;11.654;2023-03-14T22:37:11;95513.19;;;4.46;100.00
62510;BME280;48558;48.242;11.654;2023-03-14T22:41:23;95508.53;;;4.33;100.00
62510;BME280;48558;48.242;11.654;2023-03-14T22:45:36;95503.41;;;4.35;100.00
62510;BME280;48558;48.242;11.654;2023-03-14T22:49:48;95512.56;;;4.42;100.00